Time;durP1;ratioP1;P1;durP2;ratioP2;P2;SDS_P1;SDS_P2;PMS_P1;PMS_P2;Temp;Humidity;BMP_temperature;BMP_pressure;BME280_temperature;BME280_humidity;BME280_pressure;Samples;Min_cycle;Max_cycle;Signal;HPM_P1;HPM_P2
2022/04/12 00:00:48;;;;;;;3.88;2.40;;;18.20;37.90;;;;;;5065687;28;46899;-13
2022/04/12 00:03:15;;;;;;;3.15;2.25;;;18.20;37.90;;;;;;5065659;28;47117;-24
2022/04/12 00:05:41;;;;;;;2.60;2.30;;;18.20;37.90;;;;;;5065712;28;48113;-24
2022/04/12 00:08:08;;;;;;;2.42;2.17;;;18.10;37.90;;;;;;5065661;28;46934;-13
2022/04/12 00:10:36;;;;;;;2.63;2.25;;;18.10;37.90;;;;;;5065735;28;46809;-13
2022/04/12 00:13:03;;;;;;;2.83;2.40;;;18.10;37.90;;;;;;5065654;28;46722;-13
2022/04/12 00:15:30;;;;;;;2.75;2.05;;;18.10;38.00;;;;;;5065535;28;47852;-24
2022/04/12 00:20:43;;;;;;;2.85;2.25;;;18.10;38.10;;;;;;5062705;28;47018;-24
2022/04/12 00:23:11;;;;;;;3.22;2.47;;;18.10;38.00;;;;;;5065521;28;47197;-24
2022/04/12 00:25:39;;;;;;;2.47;2.10;;;18.00;38.00;;;;;;5065279;28;48845;-24
2022/04/12 00:28:06;;;;;;;2.03;1.83;;;18.00;38.10;;;;;;5065358;28;46903;-13
2022/04/12 00:30:32;;;;;;;3.33;2.20;;;18.00;38.00;;;;;;5065461;28;46879;-24
2022/04/12 00:32:59;;;;;;;3.97;2.13;;;18.00;38.10;;;;;;5065427;28;47315;-24
2022/04/12 00:35:26;;;;;;;4.65;2.58;;;18.00;38.10;;;;;;5065282;28;47895;-13
2022/04/12 00:37:53;;;;;;;3.70;2.15;;;18.00;38.00;;;;;;5065140;28;46997;-24
2022/04/12 00:40:19;;;;;;;2.10;1.90;;;18.00;38.10;;;;;;5064978;28;46891;-24
2022/04/12 00:42:48;;;;;;;2.17;1.85;;;17.90;38.10;;;;;;5065108;28;46867;-24
2022/04/12 00:45:14;;;;;;;2.58;2.22;;;17.90;38.10;;;;;;5065355;28;49042;-13
2022/04/12 00:47:41;;;;;;;2.40;2.05;;;17.90;38.10;;;;;;5064716;28;46969;-12
2022/04/12 00:50:09;;;;;;;2.10;1.80;;;17.90;38.10;;;;;;5065331;28;46864;-13
2022/04/12 00:52:37;;;;;;;2.55;2.03;;;17.90;38.10;;;;;;5065233;28;47327;-13
2022/04/12 00:55:04;;;;;;;2.13;1.92;;;17.90;38.10;;;;;;5064716;28;49058;-13
2022/04/12 00:57:30;;;;;;;3.97;2.40;;;17.90;38.20;;;;;;5065000;28;46733;-13
2022/04/12 00:59:58;;;;;;;3.08;2.10;;;17.80;38.10;;;;;;5064820;28;46777;-24
2022/04/12 01:02:25;;;;;;;2.40;2.20;;;17.80;38.20;;;;;;5065216;28;47302;-24
2022/04/12 01:04:52;;;;;;;2.65;2.05;;;17.80;38.30;;;;;;5065046;28;47079;-13
2022/04/12 01:07:18;;;;;;;2.67;2.30;;;17.80;38.20;;;;;;5064865;28;47309;-24
2022/04/12 01:09:45;;;;;;;2.67;2.30;;;17.80;38.30;;;;;;5065113;28;46740;-13
2022/04/12 01:12:12;;;;;;;2.33;1.83;;;17.70;38.20;;;;;;5064967;28;46982;-13
2022/04/12 01:14:39;;;;;;;3.10;1.90;;;17.70;38.30;;;;;;5064615;28;47834;-24
2022/04/12 01:17:08;;;;;;;2.90;2.30;;;17.70;38.30;;;;;;5064419;28;46910;-13
2022/04/12 01:19:34;;;;;;;2.45;2.22;;;17.70;38.30;;;;;;5064797;28;46760;-13
2022/04/12 01:22:03;;;;;;;2.28;2.03;;;17.70;38.30;;;;;;5064837;28;46811;-13
2022/04/12 01:24:32;;;;;;;2.30;1.90;;;17.70;38.40;;;;;;5064652;28;48379;-13
2022/04/12 01:26:58;;;;;;;2.08;1.88;;;17.70;38.40;;;;;;5064743;28;46871;-24
2022/04/12 01:29:25;;;;;;;2.75;1.95;;;17.60;38.40;;;;;;5064839;28;46894;-23
2022/04/12 01:31:52;;;;;;;2.28;1.95;;;17.60;38.40;;;;;;5064371;28;47287;-24
2022/04/12 01:34:18;;;;;;;2.20;2.00;;;17.60;38.50;;;;;;5064601;28;46827;-13
2022/04/12 01:36:45;;;;;;;2.25;1.95;;;17.60;38.40;;;;;;5064466;28;47135;-24
2022/04/12 01:39:12;;;;;;;2.22;2.00;;;17.60;38.40;;;;;;5064618;28;47014;-13
2022/04/12 01:41:40;;;;;;;2.20;1.83;;;17.50;38.30;;;;;;5064525;28;46883;-12
2022/04/12 01:44:07;;;;;;;2.72;2.08;;;17.50;38.40;;;;;;5064209;28;48818;-13
2022/04/12 01:46:33;;;;;;;2.63;2.03;;;17.50;38.40;;;;;;5063949;28;46918;-13
2022/04/12 01:49:00;;;;;;;2.03;1.85;;;17.50;38.40;;;;;;5065456;28;46865;-13
2022/04/12 01:51:28;;;;;;;3.75;2.10;;;17.50;38.40;;;;;;5068160;28;47294;-13
2022/04/12 01:53:54;;;;;;;2.08;1.88;;;17.50;38.50;;;;;;5067536;28;49089;-23
2022/04/12 01:56:22;;;;;;;2.20;2.00;;;17.50;38.50;;;;;;5067704;28;47030;-13
2022/04/12 01:58:50;;;;;;;3.53;1.90;;;17.40;38.40;;;;;;5067651;28;46798;-24
2022/04/12 02:01:16;;;;;;;2.40;1.77;;;17.40;38.50;;;;;;5067543;28;49188;-13
2022/04/12 02:03:43;;;;;;;2.38;2.00;;;17.40;38.50;;;;;;5067584;28;48088;-24
2022/04/12 02:06:10;;;;;;;2.22;1.92;;;17.40;38.50;;;;;;5067807;28;47301;-24
2022/04/12 02:08:38;;;;;;;2.10;1.90;;;17.40;38.60;;;;;;5067426;28;47021;-13
2022/04/12 02:11:06;;;;;;;2.33;2.00;;;17.40;38.50;;;;;;5067810;28;46931;-13
2022/04/12 02:13:32;;;;;;;2.20;2.00;;;17.40;38.60;;;;;;5067324;28;48796;-13
2022/04/12 02:16:00;;;;;;;2.35;1.80;;;17.30;38.60;;;;;;5067509;28;46868;-24
2022/04/12 02:18:27;;;;;;;2.17;1.83;;;17.30;38.60;;;;;;5067313;28;46860;-24
2022/04/12 02:20:54;;;;;;;2.10;1.77;;;17.30;38.60;;;;;;5067721;28;46895;-13
2022/04/12 02:23:21;;;;;;;1.85;1.73;;;17.30;38.60;;;;;;5067197;28;49119;-13
2022/04/12 02:25:48;;;;;;;2.28;1.92;;;17.30;38.60;;;;;;5067389;28;46894;-13
2022/04/12 02:28:16;;;;;;;2.45;2.03;;;17.30;38.60;;;;;;5066786;28;46866;-12
2022/04/12 02:30:43;;;;;;;3.38;2.00;;;17.30;38.60;;;;;;5067226;28;47283;-24
2022/04/12 02:33:11;;;;;;;2.35;1.77;;;17.30;38.60;;;;;;5066856;28;47938;-24
2022/04/12 02:35:38;;;;;;;2.75;2.00;;;17.20;38.60;;;;;;5067162;28;47167;-24
2022/04/12 02:38:05;;;;;;;2.15;1.80;;;17.20;38.60;;;;;;5067097;28;46915;-13
2022/04/12 02:40:32;;;;;;;2.00;1.77;;;17.20;38.60;;;;;;5067348;28;47235;-13
2022/04/12 02:42:58;;;;;;;2.80;2.08;;;17.20;38.60;;;;;;5066607;28;49092;-13
2022/04/12 02:45:25;;;;;;;2.33;1.90;;;17.20;38.60;;;;;;5066736;28;46777;-24
2022/04/12 02:47:52;;;;;;;2.50;2.03;;;17.20;38.60;;;;;;5066918;28;46847;-24
2022/04/12 02:50:20;;;;;;;2.38;2.17;;;17.20;38.60;;;;;;5066978;28;46846;-13
2022/04/12 02:52:46;;;;;;;1.95;1.75;;;17.20;38.60;;;;;;5066477;28;48797;-25
2022/04/12 02:55:13;;;;;;;2.22;2.03;;;17.20;38.70;;;;;;5066829;28;47140;-24
2022/04/12 02:57:40;;;;;;;2.45;1.70;;;17.10;38.60;;;;;;5066594;28;46898;-24
2022/04/12 03:00:07;;;;;;;1.95;1.67;;;17.10;38.70;;;;;;5065810;28;46840;-24
2022/04/12 03:02:34;;;;;;;2.38;1.88;;;17.10;38.70;;;;;;5066377;28;49034;-24
2022/04/12 03:05:01;;;;;;;1.92;1.70;;;17.10;38.70;;;;;;5067077;28;46855;-12
2022/04/12 03:07:29;;;;;;;1.95;1.75;;;17.10;38.70;;;;;;5066443;28;46881;-24
2022/04/12 03:09:56;;;;;;;2.28;1.80;;;17.10;38.70;;;;;;5066666;28;47282;-12
2022/04/12 03:12:22;;;;;;;2.22;1.73;;;17.10;38.70;;;;;;5066394;28;48101;-13
2022/04/12 03:14:49;;;;;;;2.33;1.60;;;17.00;38.60;;;;;;5066348;28;46938;-13
2022/04/12 03:17:16;;;;;;;1.92;1.73;;;17.00;38.60;;;;;;5066636;28;46912;-24
2022/04/12 03:19:42;;;;;;;2.05;1.85;;;17.00;38.70;;;;;;5066301;28;46891;-24
2022/04/12 03:22:09;;;;;;;1.95;1.75;;;17.00;38.70;;;;;;5066160;28;47077;-12
2022/04/12 03:24:37;;;;;;;2.38;1.77;;;17.00;38.60;;;;;;5066403;28;47426;-24
2022/04/12 03:27:04;;;;;;;2.15;1.58;;;17.00;38.70;;;;;;5065997;28;46918;-24
2022/04/12 03:29:31;;;;;;;1.60;1.50;;;17.00;38.70;;;;;;5066796;28;47243;-24
2022/04/12 03:31:57;;;;;;;2.35;1.85;;;17.00;38.70;;;;;;5066089;28;49083;-24
2022/04/12 03:34:24;;;;;;;1.58;1.48;;;16.90;38.70;;;;;;5066460;28;46901;-13
2022/04/12 03:36:51;;;;;;;2.30;1.73;;;16.90;38.70;;;;;;5066116;28;46941;-24
2022/04/12 03:39:17;;;;;;;1.58;1.48;;;16.90;39.40;;;;;;5066630;28;47176;-15
2022/04/12 03:41:46;;;;;;;1.83;1.48;;;16.90;38.70;;;;;;5065824;28;47277;-12
2022/04/12 03:44:13;;;;;;;2.03;1.70;;;16.90;38.70;;;;;;5066081;28;46902;-24
2022/04/12 03:46:40;;;;;;;1.60;1.50;;;16.90;38.70;;;;;;5065946;28;46893;-12
2022/04/12 03:49:06;;;;;;;1.73;1.63;;;16.90;38.70;;;;;;5066360;28;46853;-13
2022/04/12 03:51:35;;;;;;;2.22;1.73;;;16.90;38.70;;;;;;5065826;28;49178;-24
2022/04/12 03:54:02;;;;;;;1.65;1.50;;;16.80;38.70;;;;;;5065284;28;47025;-12
2022/04/12 03:56:28;;;;;;;2.70;1.70;;;16.80;38.70;;;;;;5066077;28;46795;-13
2022/04/12 03:58:58;;;;;;;2.10;1.80;;;16.80;38.70;;;;;;5066188;28;46901;-13
2022/04/12 04:01:24;;;;;;;1.95;1.75;;;16.80;38.70;;;;;;5065757;28;47934;-22
2022/04/12 04:03:51;;;;;;;1.85;1.60;;;16.80;38.80;;;;;;5065550;28;46883;-13
2022/04/12 04:06:18;;;;;;;1.40;1.30;;;16.80;38.80;;;;;;5065519;28;46839;-12
2022/04/12 04:08:45;;;;;;;3.03;1.80;;;16.80;38.70;;;;;;5065633;28;47118;-13
2022/04/12 04:11:11;;;;;;;2.85;1.90;;;16.80;38.80;;;;;;5065371;28;48135;-24
2022/04/12 04:13:38;;;;;;;1.50;1.40;;;16.80;38.80;;;;;;5065456;28;46867;-24
2022/04/12 04:16:06;;;;;;;1.95;1.60;;;16.80;38.80;;;;;;5065769;28;46971;-24
2022/04/12 04:18:33;;;;;;;1.80;1.60;;;16.70;38.80;;;;;;5065912;28;46842;-24
2022/04/12 04:21:00;;;;;;;1.52;1.38;;;16.70;38.80;;;;;;5065428;28;48149;-13
2022/04/12 04:23:26;;;;;;;1.38;1.27;;;16.70;38.80;;;;;;5065906;28;46936;-13
2022/04/12 04:25:53;;;;;;;2.05;1.50;;;16.70;38.80;;;;;;5065324;28;46817;-13
2022/04/12 04:28:22;;;;;;;1.67;1.30;;;16.70;38.80;;;;;;5065658;28;47288;-13
2022/04/12 04:30:49;;;;;;;1.40;1.30;;;16.70;38.80;;;;;;5065310;28;48242;-24
2022/04/12 04:33:18;;;;;;;1.30;1.20;;;16.70;38.80;;;;;;5065113;28;46875;-12
2022/04/12 04:35:45;;;;;;;2.13;1.77;;;16.60;38.80;;;;;;5065446;28;46992;-13
2022/04/12 04:38:11;;;;;;;1.40;1.30;;;16.60;38.80;;;;;;5065232;28;47085;-23
2022/04/12 04:40:38;;;;;;;4.18;1.45;;;16.60;38.80;;;;;;5065000;28;47835;-24
2022/04/12 04:43:05;;;;;;;1.58;1.40;;;16.60;38.80;;;;;;5064970;28;46987;-13
2022/04/12 04:45:32;;;;;;;1.58;1.40;;;16.60;38.80;;;;;;5064955;28;46913;-24
2022/04/12 04:47:59;;;;;;;1.48;1.20;;;16.60;38.90;;;;;;5064906;28;47024;-24
2022/04/12 04:50:29;;;;;;;1.55;1.45;;;16.60;38.90;;;;;;5065260;28;46921;-24
2022/04/12 04:52:56;;;;;;;1.60;1.50;;;16.60;38.90;;;;;;5065003;28;47253;-24
2022/04/12 04:55:23;;;;;;;2.45;1.40;;;16.50;38.80;;;;;;5065298;28;46949;-24
2022/04/12 04:57:51;;;;;;;1.60;1.35;;;16.50;38.90;;;;;;5065280;28;47962;-13
2022/04/12 05:00:19;;;;;;;2.97;1.60;;;16.50;38.80;;;;;;5064731;28;49101;-24
2022/04/12 05:02:46;;;;;;;1.40;1.30;;;16.50;38.90;;;;;;5064908;28;47296;-13
2022/04/12 05:05:13;;;;;;;2.08;1.40;;;16.50;39.50;;;;;;5064758;28;47005;-24
2022/04/12 05:07:43;;;;;;;1.40;1.30;;;16.50;38.90;;;;;;5065077;28;47283;-24
2022/04/12 05:10:13;;;;;;;2.33;1.33;;;16.50;38.90;;;;;;5064732;28;47075;-24
2022/04/12 05:12:40;;;;;;;1.95;1.40;;;16.50;39.00;;;;;;5064655;28;47243;-24
2022/04/12 05:15:07;;;;;;;1.30;1.20;;;16.50;39.00;;;;;;5066020;28;46925;-13
2022/04/12 05:17:34;;;;;;;1.45;1.20;;;16.50;38.90;;;;;;5064967;28;46917;-24
2022/04/12 05:20:01;;;;;;;1.65;1.50;;;16.50;38.90;;;;;;5064536;28;47871;-23
2022/04/12 05:22:27;;;;;;;1.60;1.27;;;16.50;39.00;;;;;;5064434;28;47024;-13
2022/04/12 05:24:56;;;;;;;1.38;1.27;;;16.50;38.90;;;;;;5067149;28;46861;-13
2022/04/12 05:27:22;;;;;;;1.23;1.13;;;16.50;38.90;;;;;;5068124;28;47228;-15
2022/04/12 05:29:49;;;;;;;1.52;1.42;;;16.50;38.90;;;;;;5068179;28;49088;-13
2022/04/12 05:32:16;;;;;;;1.35;1.10;;;16.50;38.90;;;;;;5068054;28;46938;-24
2022/04/12 05:34:42;;;;;;;1.55;1.45;;;16.50;38.90;;;;;;5068363;28;46894;-24
2022/04/12 05:37:09;;;;;;;1.30;1.20;;;16.50;39.00;;;;;;5068583;28;46929;-24
2022/04/12 05:39:36;;;;;;;1.35;1.20;;;16.40;38.90;;;;;;5067954;28;47084;-13
2022/04/12 05:42:05;;;;;;;1.65;1.55;;;16.50;38.80;;;;;;5067953;28;47156;-13
2022/04/12 05:44:33;;;;;;;1.35;1.25;;;16.40;38.90;;;;;;5067643;28;46839;-13
2022/04/12 05:46:59;;;;;;;2.33;1.25;;;16.40;38.90;;;;;;5067866;28;46936;-13
2022/04/12 05:49:26;;;;;;;1.52;1.42;;;16.50;38.90;;;;;;5067749;28;48251;-13
2022/04/12 05:51:53;;;;;;;1.42;1.33;;;16.40;38.90;;;;;;5067737;28;46906;-24
2022/04/12 05:54:19;;;;;;;1.35;1.25;;;16.50;39.00;;;;;;5067239;28;46843;-24
2022/04/12 05:56:46;;;;;;;1.60;1.35;;;16.40;38.90;;;;;;5067892;28;46928;-24
2022/04/12 05:59:14;;;;;;;1.73;1.38;;;16.50;39.00;;;;;;5067517;28;47102;-24
2022/04/12 06:01:42;;;;;;;1.20;1.10;;;16.50;39.60;;;;;;5067283;28;47071;-24
2022/04/12 06:04:09;;;;;;;2.13;1.50;;;16.50;39.00;;;;;;5067281;28;47124;-24
2022/04/12 06:06:35;;;;;;;1.67;1.58;;;16.50;39.00;;;;;;5067292;28;46804;-24
2022/04/12 06:09:02;;;;;;;2.30;1.30;;;16.50;38.90;;;;;;5067221;28;48790;-13
2022/04/12 06:11:29;;;;;;;2.03;1.50;;;16.50;38.90;;;;;;5066989;28;47085;-13
2022/04/12 06:13:56;;;;;;;2.08;1.33;;;16.50;38.90;;;;;;5067385;28;46975;-13
2022/04/12 06:16:24;;;;;;;1.73;1.40;;;16.50;39.00;;;;;;5067646;28;46911;-13
2022/04/12 06:18:50;;;;;;;1.50;1.40;;;16.50;38.90;;;;;;5067370;28;48805;-13
2022/04/12 06:21:17;;;;;;;1.75;1.40;;;16.50;39.00;;;;;;5067279;28;46915;-13
2022/04/12 06:23:44;;;;;;;1.50;1.40;;;16.50;38.90;;;;;;5067177;28;46884;-24
2022/04/12 06:26:11;;;;;;;1.92;1.30;;;16.50;39.00;;;;;;5066759;28;47021;-14
2022/04/12 06:28:38;;;;;;;1.30;1.20;;;16.50;38.80;;;;;;5066707;28;47737;-13
2022/04/12 06:31:06;;;;;;;1.38;1.23;;;16.50;38.90;;;;;;5066615;28;46887;-25
2022/04/12 06:33:34;;;;;;;1.52;1.40;;;16.50;39.00;;;;;;5066314;28;47112;-14
2022/04/12 06:36:01;;;;;;;1.55;1.40;;;16.50;39.00;;;;;;5067037;28;46838;-14
2022/04/12 06:38:28;;;;;;;1.40;1.30;;;16.60;39.00;;;;;;5067189;28;48772;-13
2022/04/12 06:40:55;;;;;;;2.38;1.30;;;16.60;39.00;;;;;;5067013;28;46925;-14
2022/04/12 06:43:21;;;;;;;1.33;1.08;;;16.60;39.00;;;;;;5066881;28;46814;-13
2022/04/12 06:45:48;;;;;;;1.42;1.30;;;16.60;39.00;;;;;;5066998;28;47258;-24
2022/04/12 06:48:15;;;;;;;1.60;1.38;;;16.60;39.10;;;;;;5066758;28;48162;-24
2022/04/12 06:50:43;;;;;;;1.77;1.35;;;16.60;39.10;;;;;;5066891;28;47170;-12
2022/04/12 06:53:10;;;;;;;1.45;1.35;;;16.60;39.00;;;;;;5066262;28;46923;-25
2022/04/12 06:55:37;;;;;;;2.58;1.55;;;16.60;39.10;;;;;;5066940;28;46816;-28
2022/04/12 06:58:03;;;;;;;1.85;1.50;;;16.60;40.50;;;;;;5066245;28;47855;-13
2022/04/12 07:00:30;;;;;;;5.85;1.95;;;16.70;40.60;;;;;;5066216;28;47022;-13
2022/04/12 07:02:57;;;;;;;3.03;1.95;;;16.70;40.50;;;;;;5063975;28;46926;-12
2022/04/12 07:05:24;;;;;;;7.53;2.20;;;16.80;41.40;;;;;;5066091;28;47013;-13
2022/04/12 07:07:54;;;;;;;2.97;2.70;;;16.80;42.70;;;;;;5065611;28;47904;-13
2022/04/12 07:10:21;;;;;;;5.53;3.40;;;16.80;41.50;;;;;;5055352;28;47429;-26
2022/04/12 07:12:53;;;;;;;13.45;10.88;;;16.90;41.20;;;;;;5053372;28;47122;-14
2022/04/12 07:15:20;;;;;;;9.80;8.85;;;16.90;41.00;;;;;;5062015;28;47336;-13
2022/04/12 07:17:46;;;;;;;6.90;5.13;;;16.90;40.80;;;;;;5073415;28;48167;-12
2022/04/12 07:20:13;;;;;;;6.35;3.97;;;17.00;41.30;;;;;;5068980;28;46808;-24
2022/04/12 07:22:40;;;;;;;15.10;5.43;;;16.90;41.80;;;;;;5064907;28;46894;-25
2022/04/12 07:25:09;;;;;;;6.82;5.00;;;17.00;41.60;;;;;;5065070;28;46877;-25
2022/04/12 07:27:36;;;;;;;8.77;6.43;;;17.00;42.30;;;;;;5065952;28;48162;-12
2022/04/12 07:30:04;;;;;;;7.82;5.97;;;17.00;41.40;;;;;;5073149;28;46903;-25
2022/04/12 07:32:31;;;;;;;9.02;7.68;;;17.10;41.10;;;;;;5070905;28;47073;-25
2022/04/12 07:34:58;;;;;;;11.13;10.15;;;17.20;40.90;;;;;;5065112;28;46955;-25
2022/04/12 07:37:25;;;;;;;8.75;5.32;;;17.30;40.70;;;;;;5065629;28;49035;-14
2022/04/12 07:39:51;;;;;;;9.27;7.20;;;17.30;40.70;;;;;;5064772;28;46839;-13
2022/04/12 07:42:20;;;;;;;10.13;9.23;;;17.30;40.60;;;;;;5065670;28;46933;-25
2022/04/12 07:44:47;;;;;;;15.20;13.75;;;17.40;40.30;;;;;;5076046;28;47656;-25
2022/04/12 07:47:13;;;;;;;13.25;12.00;;;17.50;40.10;;;;;;5072694;27;49049;-13
2022/04/12 07:49:40;;;;;;;13.50;8.02;;;17.50;40.00;;;;;;5064506;28;46997;-25
2022/04/12 07:52:07;;;;;;;10.52;9.43;;;17.60;40.40;;;;;;5065488;28;46942;-13
2022/04/12 07:54:34;;;;;;;13.02;9.95;;;17.60;40.10;;;;;;5064785;28;47277;-13
2022/04/12 07:57:01;;;;;;;12.82;11.70;;;17.70;39.80;;;;;;5065219;28;47950;-25
2022/04/12 07:59:29;;;;;;;13.27;11.55;;;17.80;39.70;;;;;;5072096;28;47270;-14
2022/04/12 08:01:56;;;;;;;11.38;9.75;;;17.80;39.50;;;;;;5075729;28;46797;-13
2022/04/12 08:04:22;;;;;;;9.90;8.85;;;17.90;40.00;;;;;;5064527;28;46914;-25
2022/04/12 08:06:49;;;;;;;14.18;12.68;;;17.90;39.90;;;;;;5064886;28;48047;-25
2022/04/12 08:09:16;;;;;;;18.60;16.80;;;18.00;39.60;;;;;;5064143;28;47608;-25
2022/04/12 08:11:42;;;;;;;17.20;15.50;;;18.00;39.40;;;;;;5065117;28;46925;-13
2022/04/12 08:14:11;;;;;;;13.73;11.50;;;18.10;39.40;;;;;;5064436;28;46932;-14
2022/04/12 08:16:40;;;;;;;15.13;13.30;;;18.20;39.40;;;;;;5065063;28;47922;-27
2022/04/12 08:19:08;;;;;;;15.38;13.90;;;18.20;39.30;;;;;;5063249;28;46893;-26
2022/04/12 08:21:36;;;;;;;15.93;14.40;;;18.30;39.10;;;;;;5064663;28;47012;-26
2022/04/12 08:24:07;;;;;;;12.43;8.43;;;18.40;39.10;;;;;;5064715;28;47262;-15
2022/04/12 08:26:34;;;;;;;14.43;10.40;;;18.40;38.80;;;;;;5064887;28;48087;-26
2022/04/12 08:29:01;;;;;;;17.02;13.88;;;18.40;39.20;;;;;;5063429;28;46959;-14
2022/04/12 08:31:27;;;;;;;14.52;13.02;;;18.50;39.00;;;;;;5061000;28;46925;-26
2022/04/12 08:33:55;;;;;;;17.38;15.57;;;18.50;39.20;;;;;;5061826;28;46999;-26
2022/04/12 08:36:23;;;;;;;15.88;13.02;;;18.60;39.00;;;;;;5064515;28;47890;-26
2022/04/12 08:38:51;;;;;;;13.90;12.65;;;18.70;38.90;;;;;;5063276;28;46834;-28
2022/04/12 08:41:18;;;;;;;15.20;11.93;;;18.70;38.90;;;;;;5063796;28;46937;-27
2022/04/12 08:43:45;;;;;;;17.27;14.18;;;18.80;39.00;;;;;;5063882;28;46876;-26
2022/04/12 08:46:11;;;;;;;11.82;10.65;;;18.80;38.80;;;;;;5064594;28;48876;-26
2022/04/12 08:48:38;;;;;;;15.38;12.35;;;18.90;38.40;;;;;;5063895;28;47637;-26
2022/04/12 08:51:06;;;;;;;15.10;13.20;;;18.90;38.30;;;;;;5064709;28;46958;-14
2022/04/12 08:53:33;;;;;;;12.45;11.25;;;19.00;38.40;;;;;;5063468;28;47319;-26
2022/04/12 08:56:00;;;;;;;19.92;17.92;;;19.10;38.10;;;;;;5064127;28;46886;-14
2022/04/12 08:58:28;;;;;;;14.75;13.25;;;19.10;38.20;;;;;;5065549;28;46798;-26
2022/04/12 09:00:54;;;;;;;19.65;15.57;;;19.20;37.90;;;;;;5064762;28;47428;-14
2022/04/12 09:03:21;;;;;;;14.18;12.15;;;19.20;37.90;;;;;;5068381;28;47216;-26
2022/04/12 09:05:48;;;;;;;10.60;9.55;;;19.20;38.00;;;;;;5066837;28;47063;-26
2022/04/12 09:08:26;;;;;;;8.27;7.47;;;19.20;37.70;;;;;;5067015;28;47310;-26
2022/04/12 09:10:57;;;;;;;6.68;5.97;;;19.30;37.80;;;;;;5066736;28;46843;-14
2022/04/12 09:13:24;;;;;;;6.50;5.55;;;19.30;37.70;;;;;;5068011;28;46872;-14
2022/04/12 09:15:51;;;;;;;8.55;5.22;;;19.30;37.70;;;;;;5066749;28;47920;-26
2022/04/12 09:18:31;;;;;;;10.35;4.95;;;19.30;37.70;;;;;;5068204;28;46878;-27
2022/04/12 09:21:12;;;;;;;9.55;7.07;;;19.20;37.90;;;;;;5049541;28;46885;-15
2022/04/12 09:23:43;;;;;;;7.57;5.30;;;19.30;38.40;;;;;;5066568;28;47070;-15
2022/04/12 09:26:15;;;;;;;6.38;5.25;;;19.30;38.50;;;;;;5066230;28;48225;-15
2022/04/12 09:28:42;;;;;;;7.70;6.90;;;19.30;38.70;;;;;;5066524;28;47147;-26
2022/04/12 09:31:13;;;;;;;14.43;12.93;;;19.40;38.70;;;;;;5055551;28;46959;-26
2022/04/12 09:33:40;;;;;;;15.73;14.43;;;19.50;38.20;;;;;;5048428;28;47118;-26
2022/04/12 09:36:06;;;;;;;14.18;12.77;;;19.60;38.00;;;;;;5065404;28;47813;-14
2022/04/12 09:38:34;;;;;;;8.20;7.50;;;19.70;37.70;;;;;;5066838;28;46929;-26
2022/04/12 09:41:19;;;;;;;7.15;6.30;;;19.70;37.50;;;;;;5065282;28;46816;-26
2022/04/12 09:43:57;;;;;;;10.38;9.27;;;19.80;37.90;;;;;;5067106;28;47228;-26
2022/04/12 09:46:23;;;;;;;12.93;11.73;;;19.90;37.80;;;;;;5065628;28;47948;-14
2022/04/12 09:48:51;;;;;;;16.48;13.90;;;20.00;37.80;;;;;;5066439;28;47450;-14
2022/04/12 09:51:20;;;;;;;15.43;13.90;;;20.00;37.60;;;;;;5064092;28;47035;-26
2022/04/12 09:53:46;;;;;;;11.00;10.00;;;20.00;38.00;;;;;;5065155;28;47271;-27
2022/04/12 09:56:19;;;;;;;13.10;11.98;;;20.10;38.00;;;;;;5062835;28;48455;-26
2022/04/12 09:58:47;;;;;;;12.68;11.52;;;20.10;37.40;;;;;;5063773;28;47120;-14
2022/04/12 10:01:14;;;;;;;21.27;19.25;;;20.20;37.30;;;;;;5065705;28;47075;-14
2022/04/12 10:03:43;;;;;;;6.13;5.55;;;20.30;37.30;;;;;;5067498;28;46883;-28
2022/04/12 10:06:10;;;;;;;9.15;7.13;;;20.30;36.20;;;;;;5065234;28;49382;-15
2022/04/12 10:08:37;;;;;;;11.57;10.45;;;20.40;36.80;;;;;;5066985;28;46774;-25
2022/04/12 10:11:04;;;;;;;10.82;9.85;;;20.40;36.70;;;;;;5065417;28;46940;-15
2022/04/12 10:13:32;;;;;;;14.18;12.98;;;20.50;36.20;;;;;;5066933;28;46880;-14
2022/04/12 10:15:58;;;;;;;12.52;11.23;;;20.50;36.00;;;;;;5074212;28;48121;-26
2022/04/12 10:18:25;;;;;;;7.25;6.03;;;20.50;35.90;;;;;;5067128;28;47332;-23
2022/04/12 10:20:52;;;;;;;7.78;7.05;;;20.60;35.90;;;;;;5074528;28;46840;-26
2022/04/12 10:23:20;;;;;;;10.10;9.10;;;20.60;35.70;;;;;;5063821;28;46976;-15
2022/04/12 10:25:49;;;;;;;10.55;9.40;;;20.70;35.70;;;;;;5069187;28;49058;-15
2022/04/12 10:28:16;;;;;;;7.03;6.20;;;20.70;35.80;;;;;;5066264;28;47004;-16
2022/04/12 10:30:45;;;;;;;7.05;4.20;;;20.80;35.50;;;;;;5065290;28;47017;-15
2022/04/12 10:33:18;;;;;;;11.30;6.97;;;20.80;35.30;;;;;;5047033;28;47096;-15
2022/04/12 10:35:58;;;;;;;8.80;6.75;;;20.90;35.90;;;;;;5062922;28;47846;-16
2022/04/12 10:38:25;;;;;;;12.23;10.98;;;21.00;35.80;;;;;;5067459;28;47092;-28
2022/04/12 10:40:53;;;;;;;8.07;7.35;;;21.00;36.00;;;;;;5064985;28;46959;-15
2022/04/12 10:43:23;;;;;;;6.25;5.65;;;21.10;35.60;;;;;;5046321;28;46733;-15
2022/04/12 10:45:51;;;;;;;10.45;6.68;;;21.20;35.80;;;;;;5055045;28;48813;-27
2022/04/12 10:48:19;;;;;;;8.40;7.63;;;21.30;35.70;;;;;;5066355;28;46971;-27
2022/04/12 10:50:46;;;;;;;10.77;9.75;;;21.40;35.50;;;;;;5065345;28;46986;-26
2022/04/12 10:53:13;;;;;;;5.60;5.10;;;21.50;35.50;;;;;;5066592;28;47176;-16
2022/04/12 10:55:41;;;;;;;3.80;2.95;;;21.50;35.30;;;;;;5065183;28;48109;-14
2022/04/12 10:58:14;;;;;;;8.75;5.80;;;21.60;34.70;;;;;;5066103;28;47390;-15
2022/04/12 11:00:41;;;;;;;6.57;5.97;;;21.70;35.40;;;;;;5065254;28;46929;-15
2022/04/12 11:03:11;;;;;;;5.80;5.15;;;21.70;35.50;;;;;;5066304;28;46920;-14
2022/04/12 11:06:03;;;;;;;5.07;3.97;;;21.80;35.40;;;;;;5072303;28;47059;-14
2022/04/12 11:08:46;;;;;;;10.50;9.45;;;21.80;35.00;;;;;;5049116;28;46900;-15
2022/04/12 11:11:12;;;;;;;9.00;8.20;;;21.90;34.80;;;;;;5064364;28;46835;-14
2022/04/12 11:13:39;;;;;;;8.02;6.35;;;21.90;35.10;;;;;;5064717;28;47193;-15
2022/04/12 11:16:08;;;;;;;7.40;6.53;;;21.90;35.00;;;;;;5067195;28;48174;-15
2022/04/12 11:18:48;;;;;;;5.78;5.20;;;22.00;34.90;;;;;;5065446;28;46946;-14
2022/04/12 11:21:15;;;;;;;17.48;15.65;;;22.10;34.70;;;;;;5063320;28;46851;-15
2022/04/12 11:23:45;;;;;;;12.45;9.63;;;22.10;34.60;;;;;;5066151;28;47264;-15
2022/04/12 11:26:27;;;;;;;8.20;7.40;;;22.20;34.60;;;;;;5067492;28;48209;-14
2022/04/12 11:28:55;;;;;;;8.07;7.28;;;22.30;34.60;;;;;;5057265;28;47518;-15
2022/04/12 11:31:22;;;;;;;11.02;6.45;;;22.40;34.40;;;;;;5064916;28;46999;-27
2022/04/12 11:33:50;;;;;;;8.48;6.47;;;22.50;34.40;;;;;;5066150;28;47247;-15
2022/04/12 11:36:18;;;;;;;7.07;4.30;;;22.60;34.00;;;;;;5064349;28;47981;-14
2022/04/12 11:38:45;;;;;;;3.50;3.20;;;22.70;33.20;;;;;;5065727;28;47102;-17
2022/04/12 11:41:11;;;;;;;3.75;2.22;;;22.70;33.10;;;;;;5064758;28;46993;-15
2022/04/12 11:43:38;;;;;;;3.80;2.08;;;22.80;33.00;;;;;;5064809;28;47363;-26
2022/04/12 11:46:05;;;;;;;2.40;1.77;;;22.90;33.20;;;;;;5085829;28;48128;-26
2022/04/12 11:48:32;;;;;;;2.00;1.88;;;22.90;33.20;;;;;;5085702;28;47100;-26
2022/04/12 11:51:05;;;;;;;4.25;2.00;;;23.00;33.20;;;;;;5086178;28;46855;-26
2022/04/12 11:53:32;;;;;;;1.77;1.52;;;23.10;33.20;;;;;;5086058;28;46941;-26
2022/04/12 11:56:01;;;;;;;2.35;1.50;;;23.10;33.10;;;;;;5085835;28;47901;-14
2022/04/12 11:58:29;;;;;;;2.28;1.77;;;23.20;33.00;;;;;;5085794;28;47460;-26
2022/04/12 12:00:55;;;;;;;1.65;1.55;;;23.30;32.90;;;;;;5070399;28;46939;-14
2022/04/12 12:03:23;;;;;;;2.60;1.63;;;23.40;32.80;;;;;;5065345;28;46843;-15
2022/04/12 12:05:50;;;;;;;1.52;1.42;;;23.50;32.80;;;;;;5065275;28;47871;-14
2022/04/12 12:08:20;;;;;;;1.70;1.60;;;23.50;32.60;;;;;;5064108;28;47203;-26
2022/04/12 12:10:47;;;;;;;2.83;1.70;;;23.50;32.60;;;;;;5065360;28;46940;-26
2022/04/12 12:13:13;;;;;;;3.95;1.35;;;23.50;32.50;;;;;;5065702;28;47097;-15
2022/04/12 12:15:40;;;;;;;1.95;1.50;;;23.60;32.40;;;;;;5065268;28;48121;-26
2022/04/12 12:18:07;;;;;;;1.73;1.45;;;23.60;32.40;;;;;;5064865;28;47451;-15
2022/04/12 12:20:35;;;;;;;2.88;1.30;;;23.60;32.50;;;;;;5064771;28;46901;-26
2022/04/12 12:23:02;;;;;;;2.35;1.70;;;23.60;32.30;;;;;;5064993;28;46913;-26
2022/04/12 12:25:56;;;;;;;2.38;1.73;;;23.60;32.40;;;;;;5065208;28;47957;-26
2022/04/12 12:28:24;;;;;;;3.65;1.42;;;23.70;32.20;;;;;;5064905;28;46943;-26
2022/04/12 12:30:56;;;;;;;3.17;1.80;;;23.70;31.90;;;;;;5065119;28;46808;-26
2022/04/12 12:33:23;;;;;;;1.35;1.25;;;23.80;32.20;;;;;;5064071;28;46869;-15
2022/04/12 12:35:51;;;;;;;2.17;1.40;;;23.80;31.90;;;;;;5064056;28;47943;-26
2022/04/12 12:38:18;;;;;;;1.95;1.20;;;23.80;31.80;;;;;;5063941;28;47469;-27
2022/04/12 12:40:45;;;;;;;1.50;1.13;;;23.80;31.70;;;;;;5065039;28;46758;-26
2022/04/12 12:43:14;;;;;;;2.40;1.25;;;23.80;31.90;;;;;;5064754;28;47299;-17
2022/04/12 12:45:42;;;;;;;3.83;1.60;;;23.80;31.80;;;;;;5064327;28;46895;-26
2022/04/12 12:48:11;;;;;;;2.47;1.33;;;23.80;31.70;;;;;;5064658;28;46947;-26